Time;durP1;ratioP1;P1;durP2;ratioP2;P2;SDS_P1;SDS_P2;PMS_P1;PMS_P2;Temp;Humidity;BMP_temperature;BMP_pressure;BME280_temperature;BME280_humidity;BME280_pressure;Samples;Min_cycle;Max_cycle;Signal;HPM_P1;HPM_P2
2023/03/25 00:00:58;;;;;;;;;;;;;;;21.93;27.69;97662.44;4923765;29;946;-74
2023/03/25 00:03:25;;;;;;;;;;;;;;;22.08;27.38;97646.56;4923505;29;1614;-75
2023/03/25 00:05:54;;;;;;;;;;;;;;;22.13;27.19;97651.69;4907875;29;1978;-75
2023/03/25 00:08:20;;;;;;;;;;;;;;;21.75;27.77;97652.47;4907600;29;968;-75
2023/03/25 00:10:50;;;;;;;;;;;;;;;22.03;27.44;97649.97;4923471;29;941;-75
2023/03/25 00:13:15;;;;;;;;;;;;;;;21.81;27.21;97645.03;4923300;29;1013;-75
2023/03/25 00:15:47;;;;;;;;;;;;;;;22.11;27.57;97640.00;4907220;29;956;-75
2023/03/25 00:18:12;;;;;;;;;;;;;;;22.27;27.13;97637.00;4923791;29;945;-75
2023/03/25 00:20:44;;;;;;;;;;;;;;;22.17;27.62;97643.03;4904068;29;1162;-75
2023/03/25 00:23:11;;;;;;;;;;;;;;;21.78;27.57;97637.41;4889453;29;1270;-75
2023/03/25 00:25:36;;;;;;;;;;;;;;;21.82;27.49;97638.09;4882220;29;1907;-75
2023/03/25 00:28:02;;;;;;;;;;;;;;;21.62;27.76;97633.94;4866902;29;1575;-74
2023/03/25 00:30:27;;;;;;;;;;;;;;;21.78;28.07;97634.59;4878710;29;999;-75
2023/03/25 00:32:53;;;;;;;;;;;;;;;22.29;27.46;97633.72;4851481;29;1497;-75
2023/03/25 00:35:18;;;;;;;;;;;;;;;22.19;27.48;97624.34;4866755;29;1155;-75
2023/03/25 00:37:56;;;;;;;;;;;;;;;21.82;27.48;97628.81;4881935;29;960;-75
2023/03/25 00:40:41;;;;;;;;;;;;;;;21.85;27.57;97622.22;4852210;29;1253;-75
2023/03/25 00:43:07;;;;;;;;;;;;;;;21.53;28.18;97624.06;4847851;29;1122;-75
2023/03/25 00:45:32;;;;;;;;;;;;;;;22.15;27.30;97618.00;4832326;29;1911;-76
2023/03/25 00:47:58;;;;;;;;;;;;;;;22.34;26.85;97613.28;4863270;29;1064;-75
2023/03/25 00:50:23;;;;;;;;;;;;;;;22.17;27.11;97612.66;4863071;29;1006;-75
2023/03/25 00:52:50;;;;;;;;;;;;;;;21.93;27.64;97611.47;4899261;29;1004;-75
2023/03/25 00:55:16;;;;;;;;;;;;;;;21.69;27.63;97611.03;4884917;29;1074;-75
2023/03/25 00:57:41;;;;;;;;;;;;;;;21.77;27.80;97599.03;4900371;29;1035;-75
2023/03/25 01:00:08;;;;;;;;;;;;;;;21.95;27.75;97598.41;4900634;29;1009;-75
2023/03/25 01:02:34;;;;;;;;;;;;;;;22.17;27.46;97597.69;4911854;29;1113;-75
2023/03/25 01:05:00;;;;;;;;;;;;;;;21.73;27.59;97603.22;4922134;29;1977;-75
2023/03/25 01:07:28;;;;;;;;;;;;;;;21.73;27.61;97592.69;4922185;29;1666;-75
2023/03/25 01:09:54;;;;;;;;;;;;;;;21.72;27.62;97581.81;4922492;29;936;-76
2023/03/25 01:12:20;;;;;;;;;;;;;;;22.01;27.32;97575.94;4922291;29;1463;-76
2023/03/25 01:14:45;;;;;;;;;;;;;;;21.90;27.83;97590.50;4910069;29;1104;-75
2023/03/25 01:17:11;;;;;;;;;;;;;;;21.96;27.52;97580.16;4919426;29;1000;-75
2023/03/25 01:19:37;;;;;;;;;;;;;;;22.01;27.48;97578.78;4918885;29;1147;-75
2023/03/25 01:22:02;;;;;;;;;;;;;;;21.69;27.64;97569.34;4918563;29;1074;-75
2023/03/25 01:24:27;;;;;;;;;;;;;;;21.64;28.08;97577.63;4902957;29;1347;-75
2023/03/25 01:26:53;;;;;;;;;;;;;;;21.96;27.60;97565.19;4918605;29;1978;-75
2023/03/25 01:29:19;;;;;;;;;;;;;;;22.12;27.41;97565.06;4918790;29;1008;-75
2023/03/25 01:31:44;;;;;;;;;;;;;;;21.92;27.25;97568.19;4903378;29;987;-74
2023/03/25 01:34:10;;;;;;;;;;;;;;;21.88;27.34;97563.88;4902879;29;1024;-75
2023/03/25 01:36:38;;;;;;;;;;;;;;;21.79;27.51;97562.53;4887303;29;1019;-75
2023/03/25 01:39:04;;;;;;;;;;;;;;;22.03;27.44;97559.31;4862021;29;1172;-75
2023/03/25 01:41:30;;;;;;;;;;;;;;;22.32;26.97;97559.09;4862436;29;952;-75
2023/03/25 01:44:00;;;;;;;;;;;;;;;22.29;26.58;97560.03;4862646;29;1002;-75
2023/03/25 01:46:25;;;;;;;;;;;;;;;21.87;27.44;97559.47;4876705;29;1899;-75
2023/03/25 01:48:50;;;;;;;;;;;;;;;21.77;27.37;97553.72;4865445;29;1285;-74
2023/03/25 01:51:17;;;;;;;;;;;;;;;21.82;27.58;97558.00;4862035;29;1343;-75
2023/03/25 01:53:43;;;;;;;;;;;;;;;22.21;27.21;97553.81;4862111;29;1006;-75
2023/03/25 01:56:09;;;;;;;;;;;;;;;22.29;26.82;97554.34;4862184;29;1132;-75
2023/03/25 01:58:34;;;;;;;;;;;;;;;22.05;27.16;97545.47;4879651;29;1237;-75
2023/03/25 02:01:01;;;;;;;;;;;;;;;21.79;27.72;97551.22;4899313;29;969;-74
2023/03/25 02:03:26;;;;;;;;;;;;;;;21.72;27.58;97551.47;4914337;29;1157;-76
2023/03/25 02:05:52;;;;;;;;;;;;;;;22.06;27.55;97544.22;4898862;29;1978;-75
2023/03/25 02:08:17;;;;;;;;;;;;;;;22.09;27.31;97546.91;4883421;29;1315;-75
2023/03/25 02:10:44;;;;;;;;;;;;;;;22.36;26.71;97549.19;4928629;29;1086;-75
2023/03/25 02:13:10;;;;;;;;;;;;;;;21.88;27.46;97544.06;4905381;29;1326;-75
2023/03/25 02:15:58;;;;;;;;;;;;;;;21.79;27.57;97539.88;4883391;29;1059;-75
2023/03/25 02:18:29;;;;;;;;;;;;;;;21.68;27.72;97545.13;4843112;29;1262;-75
2023/03/25 02:21:22;;;;;;;;;;;;;;;22.03;27.48;97537.44;4843360;29;1214;-76
2023/03/25 02:23:57;;;;;;;;;;;;;;;22.36;26.98;97548.41;4791897;29;1132;-75
2023/03/25 02:26:26;;;;;;;;;;;;;;;21.85;27.49;97549.38;4806579;29;1976;-75
2023/03/25 02:28:54;;;;;;;;;;;;;;;21.76;27.53;97545.66;4814047;29;1269;-75
2023/03/25 02:31:38;;;;;;;;;;;;;;;21.67;27.79;97549.22;4828064;29;1145;-75
2023/03/25 02:34:16;;;;;;;;;;;;;;;22.11;27.35;97543.66;4828095;29;989;-75
2023/03/25 02:36:59;;;;;;;;;;;;;;;22.23;27.10;97540.00;4828266;29;1137;-75
2023/03/25 02:39:38;;;;;;;;;;;;;;;21.85;27.73;97538.03;4827764;29;1477;-75
2023/03/25 02:42:13;;;;;;;;;;;;;;;21.68;28.02;97533.78;4827952;29;1005;-74
2023/03/25 02:44:41;;;;;;;;;;;;;;;21.43;28.27;97522.53;4827937;29;1203;-76
2023/03/25 02:47:08;;;;;;;;;;;;;;;21.93;27.75;97520.81;4853738;29;1248;-75
2023/03/25 02:49:44;;;;;;;;;;;;;;;22.17;27.24;97524.81;4864685;29;1647;-74
2023/03/25 02:52:15;;;;;;;;;;;;;;;22.20;27.43;97512.56;4879675;29;977;-74
2023/03/25 02:54:41;;;;;;;;;;;;;;;21.83;27.97;97519.94;4890962;29;1027;-75
2023/03/25 02:57:07;;;;;;;;;;;;;;;21.76;28.19;97517.34;4904915;29;1712;-74
2023/03/25 02:59:37;;;;;;;;;;;;;;;21.73;28.12;97527.56;4907915;28;1122;-75
2023/03/25 03:02:03;;;;;;;;;;;;;;;22.20;27.52;97523.88;4991997;28;1170;-76
2023/03/25 03:04:29;;;;;;;;;;;;;;;22.36;27.13;97523.69;4938887;29;1420;-74
2023/03/25 03:06:55;;;;;;;;;;;;;;;22.38;27.03;97516.75;4955328;29;1906;-76
2023/03/25 03:09:28;;;;;;;;;;;;;;;21.85;27.80;97506.88;4908170;29;1184;-75
2023/03/25 03:11:59;;;;;;;;;;;;;;;21.84;27.98;97508.16;4923936;29;1189;-75
2023/03/25 03:14:43;;;;;;;;;;;;;;;21.78;28.13;97503.53;4954981;29;1261;-74
2023/03/25 03:17:12;;;;;;;;;;;;;;;21.94;27.86;97491.22;4954974;29;966;-75
2023/03/25 03:19:39;;;;;;;;;;;;;;;22.11;27.84;97489.81;4955238;29;1038;-75
2023/03/25 03:22:13;;;;;;;;;;;;;;;22.03;27.96;97479.97;4939400;29;1069;-75
2023/03/25 03:24:40;;;;;;;;;;;;;;;21.71;28.08;97487.59;4939132;29;1255;-75
2023/03/25 03:27:11;;;;;;;;;;;;;;;22.00;27.95;97487.34;4939317;29;1906;-75
2023/03/25 03:29:38;;;;;;;;;;;;;;;21.95;28.26;97489.97;4955352;29;1117;-75
2023/03/25 03:32:06;;;;;;;;;;;;;;;22.08;27.95;97500.00;4923475;29;1030;-75
2023/03/25 03:34:33;;;;;;;;;;;;;;;22.04;27.61;97492.88;4941685;28;997;-75
2023/03/25 03:36:59;;;;;;;;;;;;;;;21.80;27.90;97487.66;4975880;28;1010;-74
2023/03/25 03:39:27;;;;;;;;;;;;;;;21.78;27.94;97493.00;4975417;28;911;-74
2023/03/25 03:41:57;;;;;;;;;;;;;;;21.97;28.38;97493.16;4959162;28;1179;-75
2023/03/25 03:44:28;;;;;;;;;;;;;;;22.00;28.25;97486.56;4959607;28;1218;-75
2023/03/25 03:47:07;;;;;;;;;;;;;;;22.11;27.72;97489.81;4975558;28;1906;-75
2023/03/25 03:49:34;;;;;;;;;;;;;;;21.98;27.87;97483.41;4975443;28;931;-75
2023/03/25 03:52:01;;;;;;;;;;;;;;;21.70;28.53;97485.97;4975792;28;1125;-75
2023/03/25 03:54:28;;;;;;;;;;;;;;;21.72;28.01;97477.84;4975140;28;1183;-75
2023/03/25 03:56:55;;;;;;;;;;;;;;;22.07;28.06;97481.44;4975551;28;954;-74
2023/03/25 03:59:26;;;;;;;;;;;;;;;22.32;27.70;97483.34;4975387;28;927;-76
2023/03/25 04:01:54;;;;;;;;;;;;;;;22.16;27.62;97477.88;4976516;28;1154;-75
2023/03/25 04:04:25;;;;;;;;;;;;;;;22.00;28.08;97481.69;4975430;28;1057;-75
2023/03/25 04:06:57;;;;;;;;;;;;;;;21.77;28.11;97479.31;4976567;28;1902;-75
2023/03/25 04:09:27;;;;;;;;;;;;;;;22.14;27.83;97480.41;4975433;28;1261;-75
2023/03/25 04:11:58;;;;;;;;;;;;;;;22.29;27.38;97487.13;4975200;28;956;-75
2023/03/25 04:14:24;;;;;;;;;;;;;;;22.20;27.75;97494.78;4975579;28;1114;-74
2023/03/25 04:16:51;;;;;;;;;;;;;;;22.27;27.48;97498.13;4975327;28;902;-74
2023/03/25 04:19:17;;;;;;;;;;;;;;;22.06;27.90;97496.84;4975439;28;1262;-75
2023/03/25 04:21:44;;;;;;;;;;;;;;;21.64;28.31;97496.31;4975206;28;1064;-74
2023/03/25 04:24:10;;;;;;;;;;;;;;;21.87;27.97;97494.34;4975167;28;980;-75
2023/03/25 04:26:36;;;;;;;;;;;;;;;21.74;28.27;97502.84;4991107;28;1983;-75
2023/03/25 04:29:06;;;;;;;;;;;;;;;21.84;28.64;97488.31;4978011;28;1128;-75
2023/03/25 04:31:31;;;;;;;;;;;;;;;22.01;28.30;97488.91;4978380;28;987;-74
2023/03/25 04:33:57;;;;;;;;;;;;;;;22.21;27.79;97491.47;4962402;28;1220;-75
2023/03/25 04:36:23;;;;;;;;;;;;;;;21.99;27.93;97490.66;4994703;28;968;-75
2023/03/25 04:38:51;;;;;;;;;;;;;;;21.69;28.27;97484.41;4941672;28;1270;-74
2023/03/25 04:41:17;;;;;;;;;;;;;;;21.76;28.34;97484.19;4926188;28;1000;-74
2023/03/25 04:43:43;;;;;;;;;;;;;;;21.77;28.53;97485.75;4925690;28;945;-74
2023/03/25 04:46:12;;;;;;;;;;;;;;;22.27;27.92;97489.59;4957565;28;1969;-75
2023/03/25 04:48:40;;;;;;;;;;;;;;;22.36;27.63;97486.84;4941607;28;989;-74
2023/03/25 04:51:09;;;;;;;;;;;;;;;21.90;28.34;97487.72;4941793;28;1003;-74
2023/03/25 04:53:34;;;;;;;;;;;;;;;21.82;28.23;97487.22;4926119;29;1186;-74
2023/03/25 04:56:00;;;;;;;;;;;;;;;21.71;28.64;97481.09;4941764;29;905;-75
2023/03/25 04:58:25;;;;;;;;;;;;;;;22.16;28.16;97483.56;4925380;29;1057;-75
2023/03/25 05:00:51;;;;;;;;;;;;;;;22.18;28.08;97475.41;4941593;28;938;-75
2023/03/25 05:03:22;;;;;;;;;;;;;;;22.15;27.80;97484.81;4942595;28;1309;-75
2023/03/25 05:05:48;;;;;;;;;;;;;;;21.96;28.37;97469.69;4957058;28;1973;-75
2023/03/25 05:08:14;;;;;;;;;;;;;;;21.76;28.72;97475.69;4957109;28;1052;-74
2023/03/25 05:10:41;;;;;;;;;;;;;;;21.75;28.67;97476.91;4988318;28;1045;-75
2023/03/25 05:13:07;;;;;;;;;;;;;;;22.19;28.12;97470.53;4982478;28;1092;-74
2023/03/25 05:15:38;;;;;;;;;;;;;;;22.33;27.71;97479.28;4987329;28;1575;-76
2023/03/25 05:18:05;;;;;;;;;;;;;;;21.89;28.29;97474.81;4983218;28;1354;-74
2023/03/25 05:20:33;;;;;;;;;;;;;;;21.83;28.44;97486.75;5003523;28;1493;-74
2023/03/25 05:22:59;;;;;;;;;;;;;;;21.76;28.45;97483.34;4986564;28;1471;-75
2023/03/25 05:25:25;;;;;;;;;;;;;;;22.18;28.26;97481.06;4972252;28;1978;-75
2023/03/25 05:27:50;;;;;;;;;;;;;;;22.29;27.81;97484.28;4987939;28;1527;-74
2023/03/25 05:30:16;;;;;;;;;;;;;;;22.23;27.91;97488.19;4999067;28;1648;-75
2023/03/25 05:32:44;;;;;;;;;;;;;;;21.89;28.12;97486.94;4963493;28;1503;-74
2023/03/25 05:35:10;;;;;;;;;;;;;;;21.87;28.27;97488.66;4987137;28;1630;-74
2023/03/25 05:37:36;;;;;;;;;;;;;;;21.72;28.62;97489.16;4994130;28;1534;-74
2023/03/25 05:40:03;;;;;;;;;;;;;;;21.81;28.26;97492.09;4984296;28;1411;-75
2023/03/25 05:42:28;;;;;;;;;;;;;;;22.15;28.27;97484.03;4978143;28;1852;-75
2023/03/25 05:44:54;;;;;;;;;;;;;;;22.27;27.86;97483.94;4999491;28;1976;-74
2023/03/25 05:47:20;;;;;;;;;;;;;;;22.25;28.06;97497.78;4983962;28;1704;-74
2023/03/25 05:49:47;;;;;;;;;;;;;;;21.93;28.20;97492.50;4988473;28;1352;-75
2023/03/25 05:52:12;;;;;;;;;;;;;;;21.81;28.60;97491.28;4984015;28;1440;-74
2023/03/25 05:54:40;;;;;;;;;;;;;;;21.77;28.53;97482.13;4968098;28;1566;-75
2023/03/25 05:57:06;;;;;;;;;;;;;;;22.18;28.09;97475.41;4944737;28;1637;-74
2023/03/25 05:59:32;;;;;;;;;;;;;;;22.29;28.08;97470.13;4975508;28;1014;-74
2023/03/25 06:01:57;;;;;;;;;;;;;;;22.16;27.94;97482.78;4975714;28;1058;-75
2023/03/25 06:04:23;;;;;;;;;;;;;;;21.92;28.18;97474.72;4950450;29;1122;-74
2023/03/25 06:06:49;;;;;;;;;;;;;;;21.70;28.56;97479.53;4940157;29;1918;-74
2023/03/25 06:09:16;;;;;;;;;;;;;;;21.64;28.70;97470.84;4936736;29;975;-74
2023/03/25 06:11:42;;;;;;;;;;;;;;;22.20;28.24;97466.44;4921480;29;1234;-74
2023/03/25 06:14:08;;;;;;;;;;;;;;;22.14;28.48;97456.94;4920977;29;1043;-74
2023/03/25 06:16:34;;;;;;;;;;;;;;;21.87;28.68;97458.31;4905376;29;1134;-75
2023/03/25 06:19:00;;;;;;;;;;;;;;;21.84;28.37;97450.72;4921000;29;1106;-75
2023/03/25 06:21:26;;;;;;;;;;;;;;;21.81;28.67;97458.09;4920831;29;1502;-75
2023/03/25 06:23:52;;;;;;;;;;;;;;;22.18;28.22;97466.91;4908292;29;1529;-74
2023/03/25 06:26:18;;;;;;;;;;;;;;;22.33;27.67;97459.44;4920377;29;1974;-75
2023/03/25 06:28:44;;;;;;;;;;;;;;;22.43;27.63;97473.66;4936088;29;1474;-74
2023/03/25 06:31:11;;;;;;;;;;;;;;;21.92;28.32;97462.59;4882405;29;1631;-75
2023/03/25 06:33:36;;;;;;;;;;;;;;;21.81;28.58;97462.94;4867196;29;1634;-75
2023/03/25 06:36:02;;;;;;;;;;;;;;;21.66;28.62;97462.69;4912606;29;1463;-74
2023/03/25 06:38:28;;;;;;;;;;;;;;;22.00;28.70;97458.22;4917282;29;1577;-75
2023/03/25 06:41:03;;;;;;;;;;;;;;;22.41;27.85;97470.50;4916897;29;1550;-75
2023/03/25 06:43:29;;;;;;;;;;;;;;;22.38;27.81;97477.88;4882444;29;1573;-75
2023/03/25 06:46:17;;;;;;;;;;;;;;;21.72;28.56;97477.84;4873400;29;1981;-74
2023/03/25 06:49:10;;;;;;;;;;;;;;;21.73;28.75;97485.06;4874765;29;1420;-75
2023/03/25 06:51:35;;;;;;;;;;;;;;;21.83;29.11;97478.25;4878979;29;1617;-74
2023/03/25 06:54:01;;;;;;;;;;;;;;;22.29;27.95;97484.28;4879619;29;946;-75
2023/03/25 06:56:26;;;;;;;;;;;;;;;22.27;28.15;97491.66;4879617;29;962;-75
2023/03/25 06:58:52;;;;;;;;;;;;;;;21.90;28.41;97493.41;4879669;29;1103;-74
2023/03/25 07:01:17;;;;;;;;;;;;;;;21.88;28.31;97491.03;4887159;29;1088;-75
2023/03/25 07:03:43;;;;;;;;;;;;;;;21.53;28.80;97481.75;4935867;29;1379;-73
2023/03/25 07:06:09;;;;;;;;;;;;;;;22.11;28.66;97475.66;4935807;29;1898;-74
2023/03/25 07:08:34;;;;;;;;;;;;;;;22.26;28.15;97482.38;4920210;29;1060;-75
2023/03/25 07:11:01;;;;;;;;;;;;;;;22.33;27.78;97482.13;4936177;29;1150;-75
2023/03/25 07:13:26;;;;;;;;;;;;;;;22.02;28.31;97486.88;4922398;28;1552;-75
2023/03/25 07:15:54;;;;;;;;;;;;;;;22.02;27.72;97489.72;4940710;28;1517;-75
2023/03/25 07:18:19;;;;;;;;;;;;;;;21.89;27.92;97489.00;4947364;28;1601;-75
2023/03/25 07:20:45;;;;;;;;;;;;;;;22.25;28.38;97485.66;4963515;28;1484;-75
2023/03/25 07:23:10;;;;;;;;;;;;;;;22.09;28.60;97478.91;4981051;28;1502;-75
2023/03/25 07:25:36;;;;;;;;;;;;;;;22.34;27.80;97483.69;5000629;28;1903;-75
2023/03/25 07:28:02;;;;;;;;;;;;;;;21.98;28.20;97477.75;5012000;28;1614;-75
2023/03/25 07:30:29;;;;;;;;;;;;;;;21.77;28.53;97474.44;4998585;28;1107;-75
2023/03/25 07:32:54;;;;;;;;;;;;;;;21.71;28.48;97467.78;5015591;28;992;-76
2023/03/25 07:35:20;;;;;;;;;;;;;;;22.14;28.58;97469.06;5014662;28;1089;-75
2023/03/25 07:37:45;;;;;;;;;;;;;;;22.33;27.86;97472.81;5015643;28;1024;-75
2023/03/25 07:40:11;;;;;;;;;;;;;;;22.15;28.18;97470.66;5015339;28;966;-75
2023/03/25 07:42:37;;;;;;;;;;;;;;;21.94;28.01;97465.75;5015571;28;1182;-75
2023/03/25 07:45:18;;;;;;;;;;;;;;;21.75;28.41;97471.25;4985120;28;1917;-75
2023/03/25 07:47:48;;;;;;;;;;;;;;;21.75;28.24;97468.41;4982149;28;1108;-75
2023/03/25 07:50:17;;;;;;;;;;;;;;;22.20;28.65;97478.56;4958511;28;1042;-75
2023/03/25 07:52:43;;;;;;;;;;;;;;;22.27;28.22;97466.94;4942198;28;1073;-76
2023/03/25 07:55:08;;;;;;;;;;;;;;;22.22;28.34;97464.69;4958090;28;880;-75
2023/03/25 07:57:34;;;;;;;;;;;;;;;21.94;28.46;97460.06;4942131;28;1002;-76
2023/03/25 08:00:00;;;;;;;;;;;;;;;22.09;27.96;97466.81;4958110;28;1024;-75
2023/03/25 08:02:25;;;;;;;;;;;;;;;21.92;28.39;97468.25;4976321;28;994;-76
2023/03/25 08:04:53;;;;;;;;;;;;;;;22.36;28.22;97464.16;4959572;28;1105;-75
2023/03/25 08:07:19;;;;;;;;;;;;;;;22.28;28.05;97462.09;4923210;29;1986;-75
2023/03/25 08:09:44;;;;;;;;;;;;;;;22.10;28.09;97465.53;4907601;29;1235;-75
2023/03/25 08:12:10;;;;;;;;;;;;;;;21.90;28.69;97459.41;4923304;29;1170;-75
2023/03/25 08:14:35;;;;;;;;;;;;;;;21.88;28.28;97465.53;4938948;29;1002;-75
2023/03/25 08:17:01;;;;;;;;;;;;;;;21.83;28.46;97455.59;4907365;29;1109;-75
2023/03/25 08:19:26;;;;;;;;;;;;;;;22.20;28.24;97461.56;4939179;29;1182;-75
2023/03/25 08:21:52;;;;;;;;;;;;;;;22.23;28.20;97449.31;4952418;28;1193;-76
2023/03/25 08:24:17;;;;;;;;;;;;;;;22.27;27.81;97437.81;4977621;28;895;-75
2023/03/25 08:26:43;;;;;;;;;;;;;;;21.95;28.33;97447.50;4977555;28;1977;-76
2023/03/25 08:29:08;;;;;;;;;;;;;;;22.01;28.22;97439.97;4977109;28;1062;-76
2023/03/25 08:31:37;;;;;;;;;;;;;;;21.94;28.29;97437.41;4977247;28;1348;-75
2023/03/25 08:34:02;;;;;;;;;;;;;;;22.21;28.67;97440.47;4976942;28;1171;-76
2023/03/25 08:36:28;;;;;;;;;;;;;;;22.18;28.60;97447.06;4938790;29;1072;-75
2023/03/25 08:38:53;;;;;;;;;;;;;;;22.17;28.53;97445.47;4953215;29;1357;-75
2023/03/25 08:41:19;;;;;;;;;;;;;;;21.87;28.96;97432.03;4957851;29;1290;-75
2023/03/25 08:43:45;;;;;;;;;;;;;;;21.72;28.74;97431.75;4957733;29;1100;-75
2023/03/25 08:46:10;;;;;;;;;;;;;;;21.87;28.55;97432.03;4957993;29;1906;-75
2023/03/25 08:48:36;;;;;;;;;;;;;;;21.94;28.79;97432.53;4957709;29;1129;-76
2023/03/25 08:51:02;;;;;;;;;;;;;;;22.15;28.59;97433.03;4957591;29;962;-75
2023/03/25 08:53:27;;;;;;;;;;;;;;;22.67;27.64;97426.53;4957878;29;1032;-76
2023/03/25 08:55:53;;;;;;;;;;;;;;;21.81;28.70;97431.78;4957754;29;966;-75
2023/03/25 08:58:18;;;;;;;;;;;;;;;21.85;28.45;97438.91;4957790;29;1055;-75
2023/03/25 09:00:44;;;;;;;;;;;;;;;21.88;28.35;97427.94;4938250;29;1247;-75
2023/03/25 09:03:10;;;;;;;;;;;;;;;22.13;28.34;97427.03;4922542;29;1118;-75
2023/03/25 09:05:38;;;;;;;;;;;;;;;22.33;28.20;97431.09;4918590;29;1985;-75
2023/03/25 09:08:04;;;;;;;;;;;;;;;22.00;28.60;97427.06;4903133;29;1012;-75
2023/03/25 09:10:29;;;;;;;;;;;;;;;21.82;28.45;97436.22;4887943;29;1110;-75
2023/03/25 09:12:55;;;;;;;;;;;;;;;21.75;28.45;97434.44;4906120;29;911;-74
2023/03/25 09:15:21;;;;;;;;;;;;;;;21.84;28.18;97423.19;4941392;29;1202;-74
2023/03/25 09:17:46;;;;;;;;;;;;;;;21.92;28.99;97428.59;4956741;29;1142;-75
2023/03/25 09:20:12;;;;;;;;;;;;;;;22.22;28.49;97424.25;4941045;29;1389;-76
2023/03/25 09:22:37;;;;;;;;;;;;;;;22.35;27.99;97416.47;4940862;29;1169;-75
2023/03/25 09:25:03;;;;;;;;;;;;;;;21.88;28.75;97419.44;4925435;29;1911;-75
2023/03/25 09:27:28;;;;;;;;;;;;;;;21.83;28.84;97420.81;4941023;29;1008;-76
2023/03/25 09:29:54;;;;;;;;;;;;;;;21.54;29.13;97418.22;4925468;29;1155;-75
2023/03/25 09:32:19;;;;;;;;;;;;;;;21.81;28.84;97411.97;4953616;28;1056;-75
2023/03/25 09:34:45;;;;;;;;;;;;;;;22.38;28.29;97420.38;4979461;28;993;-75
2023/03/25 09:37:10;;;;;;;;;;;;;;;22.23;28.16;97403.97;4966669;28;1292;-75
2023/03/25 09:39:36;;;;;;;;;;;;;;;22.03;28.41;97412.00;4957743;29;1247;-75
2023/03/25 09:42:11;;;;;;;;;;;;;;;21.71;28.76;97413.16;4942360;29;1028;-76
2023/03/25 09:44:38;;;;;;;;;;;;;;;21.83;28.51;97404.63;4958960;29;961;-75
2023/03/25 09:47:03;;;;;;;;;;;;;;;21.71;28.90;97408.31;4941842;29;1903;-75
2023/03/25 09:49:39;;;;;;;;;;;;;;;22.10;28.73;97403.22;4942032;29;1170;-75
2023/03/25 09:52:05;;;;;;;;;;;;;;;22.35;27.98;97405.13;4941929;29;862;-75
2023/03/25 09:54:34;;;;;;;;;;;;;;;22.01;28.55;97398.25;4921381;29;1325;-76
2023/03/25 09:57:05;;;;;;;;;;;;;;;21.87;28.68;97398.03;4905878;29;1211;-75
2023/03/25 09:59:35;;;;;;;;;;;;;;;21.82;28.55;97396.59;4921339;29;1120;-75
2023/03/25 10:02:19;;;;;;;;;;;;;;;22.10;28.86;97391.88;4921596;29;1012;-75
2023/03/25 10:04:47;;;;;;;;;;;;;;;22.10;28.53;97387.03;4920905;29;1110;-75
2023/03/25 10:07:21;;;;;;;;;;;;;;;22.52;27.97;97397.94;4937143;29;2341;-75
2023/03/25 10:09:46;;;;;;;;;;;;;;;22.05;28.21;97398.13;4921209;29;1221;-75
2023/03/25 10:12:30;;;;;;;;;;;;;;;21.83;28.88;97384.00;4921399;29;1206;-75
2023/03/25 10:15:02;;;;;;;;;;;;;;;21.80;28.59;97385.69;4921192;29;983;-75
2023/03/25 10:17:39;;;;;;;;;;;;;;;22.02;29.04;97382.06;4939672;28;1532;-75
2023/03/25 10:20:22;;;;;;;;;;;;;;;22.23;28.54;97369.16;4943042;28;1082;-76
2023/03/25 10:22:54;;;;;;;;;;;;;;;22.04;28.47;97368.25;4959185;28;1191;-75
2023/03/25 10:25:21;;;;;;;;;;;;;;;21.98;28.63;97358.75;4974580;28;1911;-75
2023/03/25 10:27:48;;;;;;;;;;;;;;;22.01;28.46;97361.44;4975387;28;1022;-76
2023/03/25 10:30:15;;;;;;;;;;;;;;;21.78;28.80;97357.06;4967166;28;1168;-76
2023/03/25 10:32:45;;;;;;;;;;;;;;;21.96;29.12;97345.03;4995638;28;1965;-76
2023/03/25 10:35:14;;;;;;;;;;;;;;;22.18;28.35;97344.28;4987381;28;1601;-76
2023/03/25 10:37:40;;;;;;;;;;;;;;;21.92;28.54;97343.63;5012422;28;1683;-76
2023/03/25 10:40:15;;;;;;;;;;;;;;;21.91;28.63;97336.34;5007293;28;1721;-76
2023/03/25 10:42:44;;;;;;;;;;;;;;;21.74;28.79;97344.28;4972560;28;1545;-76
2023/03/25 10:45:13;;;;;;;;;;;;;;;21.74;29.01;97328.09;4985049;28;1903;-76
2023/03/25 10:47:38;;;;;;;;;;;;;;;22.31;28.15;97340.06;4984112;28;1635;-76
2023/03/25 10:50:04;;;;;;;;;;;;;;;22.43;27.93;97331.91;4997042;28;1627;-75
2023/03/25 10:52:30;;;;;;;;;;;;;;;22.23;28.27;97330.28;5015301;28;1088;-76
2023/03/25 10:54:55;;;;;;;;;;;;;;;21.91;28.63;97319.38;4994073;28;962;-76
2023/03/25 10:57:22;;;;;;;;;;;;;;;21.91;28.73;97319.38;4977721;28;990;-76
2023/03/25 10:59:55;;;;;;;;;;;;;;;22.08;28.89;97312.22;4961771;28;1196;-73
2023/03/25 11:02:24;;;;;;;;;;;;;;;22.39;28.08;97314.28;4939211;29;1370;-73
2023/03/25 11:04:51;;;;;;;;;;;;;;;22.38;27.76;97307.00;4923505;29;1229;-73
2023/03/25 11:07:18;;;;;;;;;;;;;;;22.16;28.06;97310.72;4923379;29;1926;-73
2023/03/25 11:09:44;;;;;;;;;;;;;;;21.79;28.50;97298.38;4939321;29;964;-73
2023/03/25 11:12:09;;;;;;;;;;;;;;;21.72;28.67;97305.13;4935666;29;971;-73
2023/03/25 11:14:36;;;;;;;;;;;;;;;22.19;28.70;97306.97;4920202;29;1021;-74
2023/03/25 11:17:02;;;;;;;;;;;;;;;22.26;28.22;97289.66;4919965;29;1016;-73
2023/03/25 11:19:28;;;;;;;;;;;;;;;22.26;28.23;97289.66;4901058;29;1086;-74
2023/03/25 11:22:07;;;;;;;;;;;;;;;22.44;27.79;97285.31;4901254;29;1569;-73
2023/03/25 11:24:33;;;;;;;;;;;;;;;22.14;28.17;97276.41;4860426;29;997;-74
2023/03/25 11:26:58;;;;;;;;;;;;;;;21.83;28.86;97280.00;4843618;29;1992;-74
2023/03/25 11:29:24;;;;;;;;;;;;;;;21.91;28.69;97279.72;4839615;29;1615;-73
2023/03/25 11:31:57;;;;;;;;;;;;;;;21.67;28.97;97271.75;4847536;29;1598;-74
2023/03/25 11:34:23;;;;;;;;;;;;;;;21.73;28.74;97284.03;4850624;29;1516;-74
2023/03/25 11:36:58;;;;;;;;;;;;;;;22.20;28.51;97280.19;4883742;29;1026;-75
2023/03/25 11:39:23;;;;;;;;;;;;;;;22.09;28.61;97268.47;4891804;29;1262;-75
2023/03/25 11:41:49;;;;;;;;;;;;;;;21.95;28.81;97271.88;4900397;29;1220;-74
2023/03/25 11:44:20;;;;;;;;;;;;;;;21.93;28.83;97254.56;4901448;29;947;-75
2023/03/25 11:46:45;;;;;;;;;;;;;;;21.90;28.77;97261.94;4901978;29;1969;-74
2023/03/25 11:49:10;;;;;;;;;;;;;;;21.91;28.60;97252.19;4895436;29;1119;-74
2023/03/25 11:51:36;;;;;;;;;;;;;;;22.32;28.73;97253.78;4903893;29;978;-74
2023/03/25 11:54:04;;;;;;;;;;;;;;;22.27;28.41;97251.56;4915156;29;1665;-74
2023/03/25 11:56:33;;;;;;;;;;;;;;;22.23;28.23;97250.94;4962470;28;1559;-74
2023/03/25 11:58:59;;;;;;;;;;;;;;;22.18;28.65;97251.56;4929540;28;1311;-74
2023/03/25 12:01:27;;;;;;;;;;;;;;;21.95;28.68;97240.72;4967908;28;1549;-74
2023/03/25 12:04:11;;;;;;;;;;;;;;;21.87;28.89;97239.44;4932619;29;1515;-74
2023/03/25 12:06:36;;;;;;;;;;;;;;;22.24;28.68;97251.72;4964043;28;1976;-74
2023/03/25 12:09:05;;;;;;;;;;;;;;;22.29;28.51;97249.06;4949836;28;1676;-74
2023/03/25 12:11:42;;;;;;;;;;;;;;;21.97;28.79;97239.00;4945516;28;1136;-74
2023/03/25 12:14:07;;;;;;;;;;;;;;;21.84;29.20;97233.44;4945131;28;1260;-74
2023/03/25 12:16:43;;;;;;;;;;;;;;;21.69;29.04;97235.25;4977253;28;1058;-74
2023/03/25 12:19:32;;;;;;;;;;;;;;;22.01;29.07;97233.19;4945365;28;1253;-74
2023/03/25 12:22:09;;;;;;;;;;;;;;;22.43;28.24;97236.31;4957900;29;1056;-74
2023/03/25 12:24:39;;;;;;;;;;;;;;;22.14;28.45;97242.41;4957853;29;1010;-74
2023/03/25 12:27:10;;;;;;;;;;;;;;;21.91;28.73;97225.91;4941916;29;1994;-74
2023/03/25 12:29:58;;;;;;;;;;;;;;;22.10;28.46;97222.69;4942137;29;1027;-74
2023/03/25 12:32:33;;;;;;;;;;;;;;;21.87;28.89;97228.91;4903971;29;1207;-74
2023/03/25 12:34:59;;;;;;;;;;;;;;;21.92;29.03;97231.13;4903913;29;1262;-74
2023/03/25 12:37:28;;;;;;;;;;;;;;;22.34;28.58;97228.59;4919919;29;1022;-74
2023/03/25 12:40:12;;;;;;;;;;;;;;;22.48;28.06;97226.41;4903878;29;1037;-74
2023/03/25 12:42:47;;;;;;;;;;;;;;;22.19;28.31;97230.44;4919290;29;1013;-75
2023/03/25 12:45:13;;;;;;;;;;;;;;;21.87;29.01;97222.44;4888002;29;1903;-74
2023/03/25 12:47:38;;;;;;;;;;;;;;;21.66;29.03;97213.53;4921605;29;1589;-74
2023/03/25 12:50:13;;;;;;;;;;;;;;;22.26;28.51;97212.34;4918704;29;1489;-75
2023/03/25 12:52:42;;;;;;;;;;;;;;;22.37;28.47;97207.03;4904190;29;1164;-74
2023/03/25 12:55:08;;;;;;;;;;;;;;;21.93;28.80;97203.59;4913393;29;1394;-74
2023/03/25 12:57:33;;;;;;;;;;;;;;;21.96;28.87;97202.63;4881568;29;1063;-73
2023/03/25 13:00:00;;;;;;;;;;;;;;;21.89;28.48;97202.94;4897202;29;1008;-74
2023/03/25 13:02:45;;;;;;;;;;;;;;;21.75;28.66;97193.75;4881537;29;1056;-74